Time;durP1;ratioP1;P1;durP2;ratioP2;P2;SDS_P1;SDS_P2;PMS_P1;PMS_P2;Temp;Humidity;BMP_temperature;BMP_pressure;BME280_temperature;BME280_humidity;BME280_pressure;Samples;Min_cycle;Max_cycle;Signal;HPM_P1;HPM_P2
2022/07/30 00:03:40;;;;;;;6.28;5.40;;;;;;;18.95;87.98;99796.59;12205097;19;20240;-83
2022/07/30 00:07:42;;;;;;;8.20;5.82;;;;;;;18.93;87.38;99796.09;12174157;19;20014;-84
2022/07/30 00:11:43;;;;;;;6.80;5.68;;;;;;;18.81;88.41;99797.38;12200376;19;20006;-82
2022/07/30 00:15:45;;;;;;;7.88;5.88;;;;;;;18.78;88.39;99802.75;12204342;19;20017;-83
2022/07/30 00:19:47;;;;;;;9.82;5.70;;;;;;;18.71;89.43;99802.25;12176978;19;20003;-83
2022/07/30 00:23:48;;;;;;;7.40;5.68;;;;;;;18.65;89.74;99796.78;12204440;19;20532;-83
2022/07/30 00:28:02;;;;;;;10.00;6.50;;;;;;;18.58;91.07;99789.91;12202203;19;20079;-81
2022/07/30 00:32:04;;;;;;;8.23;6.07;;;;;;;18.51;90.51;99784.72;12169325;19;20018;-81
2022/07/30 00:36:06;;;;;;;7.23;6.10;;;;;;;18.44;90.99;99790.69;12197823;19;20400;-82
2022/07/30 00:40:08;;;;;;;8.55;5.75;;;;;;;18.39;90.76;99784.38;12172653;19;20014;-83
2022/07/30 00:44:10;;;;;;;8.17;6.70;;;;;;;18.31;91.52;99788.66;12190800;19;20014;-81
2022/07/30 00:48:13;;;;;;;9.45;6.70;;;;;;;18.26;91.67;99787.91;12189605;19;20024;-83
2022/07/30 00:52:14;;;;;;;8.75;7.28;;;;;;;18.15;94.13;99788.06;12175073;19;20086;-83
2022/07/30 00:56:16;;;;;;;9.27;6.47;;;;;;;18.09;94.77;99780.91;12201412;19;20074;-83
2022/07/30 01:00:18;;;;;;;9.52;7.22;;;;;;;18.01;96.69;99783.53;12203352;19;20580;-83
2022/07/30 01:04:20;;;;;;;10.77;7.15;;;;;;;17.99;95.69;99783.81;12191918;19;20054;-83
2022/07/30 01:08:22;;;;;;;9.38;6.63;;;;;;;17.97;95.75;99761.00;12204127;19;20007;-84
2022/07/30 01:12:26;;;;;;;11.23;6.90;;;;;;;17.98;95.48;99759.84;12208560;19;20043;-83
2022/07/30 01:16:28;;;;;;;8.80;6.88;;;;;;;17.96;96.67;99762.09;12192526;19;20457;-82
2022/07/30 01:20:39;;;;;;;13.70;7.77;;;;;;;17.93;96.21;99773.88;12226705;19;20874;-83
2022/07/30 01:25:23;;;;;;;11.18;7.53;;;;;;;17.89;97.16;99764.44;12230806;19;20110;-84
2022/07/30 01:29:27;;;;;;;9.77;6.78;;;;;;;17.85;97.83;99763.41;12201036;19;20488;-83
2022/07/30 01:33:32;;;;;;;8.68;6.63;;;;;;;17.83;97.27;99765.66;12222266;19;20018;-84
2022/07/30 01:37:35;;;;;;;8.25;7.25;;;;;;;17.79;97.86;99765.41;12201496;19;20070;-82
2022/07/30 01:41:39;;;;;;;10.77;7.25;;;;;;;17.75;98.36;99772.66;12242806;19;20014;-84
2022/07/30 01:45:42;;;;;;;10.70;7.68;;;;;;;17.74;99.04;99777.41;12226804;19;20015;-83
2022/07/30 01:49:48;;;;;;;8.63;7.10;;;;;;;17.72;99.68;99782.44;12191139;19;20078;-84
2022/07/30 01:53:51;;;;;;;9.73;7.60;;;;;;;17.72;99.51;99784.41;12212957;19;20011;-84
2022/07/30 01:57:54;;;;;;;11.90;8.38;;;;;;;17.64;99.15;99796.22;12207922;19;20007;-83
2022/07/30 02:01:57;;;;;;;10.68;7.50;;;;;;;17.54;100.00;99802.75;12201076;19;20011;-84
2022/07/30 02:06:06;;;;;;;9.05;7.25;;;;;;;17.49;100.00;99798.06;12207538;19;20503;-83
2022/07/30 02:10:33;;;;;;;13.35;8.10;;;;;;;17.48;100.00;99807.53;12195705;19;20025;-83
2022/07/30 02:15:06;;;;;;;11.45;7.88;;;;;;;17.42;100.00;99807.91;12211711;19;20055;-82
2022/07/30 02:19:17;;;;;;;10.63;8.20;;;;;;;17.39;100.00;99820.47;12191307;19;20018;-83
2022/07/30 02:23:20;;;;;;;10.73;8.27;;;;;;;17.39;100.00;99814.06;12207940;19;20017;-83
2022/07/30 02:27:26;;;;;;;13.40;9.38;;;;;;;17.39;100.00;99819.63;12201057;19;20019;-83
2022/07/30 02:31:31;;;;;;;11.55;8.88;;;;;;;17.40;100.00;99822.13;12185972;19;20011;-83
2022/07/30 02:35:35;;;;;;;12.18;8.80;;;;;;;17.43;100.00;99817.91;12204281;19;20015;-84
2022/07/30 02:39:38;;;;;;;11.77;9.38;;;;;;;17.43;100.00;99823.47;12200116;19;20015;-84
2022/07/30 02:43:41;;;;;;;12.70;9.13;;;;;;;17.43;100.00;99823.47;12187402;19;20018;-84
2022/07/30 02:47:57;;;;;;;13.43;9.52;;;;;;;17.41;100.00;99818.22;12205392;19;20006;-83
2022/07/30 02:52:00;;;;;;;13.13;9.65;;;;;;;17.35;100.00;99818.56;12218453;19;20010;-83
2022/07/30 02:56:06;;;;;;;11.48;9.15;;;;;;;17.34;100.00;99828.88;12181906;19;20023;-84
2022/07/30 03:00:08;;;;;;;11.77;9.27;;;;;;;17.34;100.00;99842.81;12205425;19;20007;-84
2022/07/30 03:04:12;;;;;;;11.32;9.23;;;;;;;17.31;100.00;99838.66;12189771;19;20021;-84
2022/07/30 03:08:16;;;;;;;13.55;10.35;;;;;;;17.31;100.00;99835.88;12213339;19;20098;-84
2022/07/30 03:12:24;;;;;;;15.10;10.98;;;;;;;17.31;100.00;99838.66;12199393;19;20409;-83
2022/07/30 03:16:28;;;;;;;12.65;10.05;;;;;;;17.28;100.00;99842.03;12182233;19;20458;-83
2022/07/30 03:20:33;;;;;;;18.13;10.15;;;;;;;17.24;100.00;99837.34;12200498;19;20034;-83
2022/07/30 03:24:37;;;;;;;13.88;10.43;;;;;;;17.25;100.00;99850.13;12208003;19;20010;-83
2022/07/30 03:28:45;;;;;;;14.43;10.73;;;;;;;17.19;100.00;99849.38;12185387;19;20006;-84
2022/07/30 03:32:48;;;;;;;14.38;11.48;;;;;;;17.17;100.00;99856.34;12202031;19;20007;-84
2022/07/30 03:36:51;;;;;;;13.15;10.52;;;;;;;17.12;100.00;99846.06;12208060;19;20011;-85
2022/07/30 03:40:54;;;;;;;17.55;11.38;;;;;;;17.12;100.00;99854.44;12178828;19;20333;-83
2022/07/30 03:44:59;;;;;;;15.43;11.27;;;;;;;17.09;100.00;99857.78;12202238;19;20796;-83
2022/07/30 03:49:02;;;;;;;16.25;11.82;;;;;;;17.08;100.00;99858.94;12196254;19;20006;-83
2022/07/30 03:53:07;;;;;;;14.10;11.30;;;;;;;17.05;100.00;99854.78;12187209;19;20014;-83
2022/07/30 03:57:20;;;;;;;14.18;10.77;;;;;;;17.03;100.00;99856.19;12191732;19;20015;-83
2022/07/30 04:01:25;;;;;;;16.35;11.43;;;;;;;17.02;100.00;99851.75;12183709;19;20011;-84
2022/07/30 04:05:32;;;;;;;18.15;11.30;;;;;;;17.03;100.00;99857.00;12197389;19;20512;-83
2022/07/30 04:09:42;;;;;;;15.40;10.32;;;;;;;17.04;100.00;99857.84;12202050;19;20018;-84
2022/07/30 04:14:03;;;;;;;17.13;10.00;;;;;;;17.04;100.00;99867.03;12180947;19;20031;-84
2022/07/30 04:18:07;;;;;;;13.60;10.10;;;;;;;17.05;100.00;99865.06;12197650;19;20017;-83
2022/07/30 04:22:11;;;;;;;15.35;10.95;;;;;;;17.05;100.00;99865.06;12177662;19;20002;-82
2022/07/30 04:26:14;;;;;;;15.27;11.38;;;;;;;17.03;100.00;99867.31;12204992;19;20006;-82
2022/07/30 04:30:16;;;;;;;16.98;11.73;;;;;;;17.02;100.00;99871.22;12199442;19;21417;-83
2022/07/30 04:34:17;;;;;;;15.38;10.50;;;;;;;17.02;100.00;99880.41;12188785;19;20010;-82
2022/07/30 04:38:19;;;;;;;15.45;10.98;;;;;;;17.04;100.00;99885.66;12211278;19;20013;-83
2022/07/30 04:42:28;;;;;;;14.68;11.38;;;;;;;17.05;100.00;99881.78;12209594;19;20006;-82
2022/07/30 04:46:44;;;;;;;18.30;11.32;;;;;;;17.08;100.00;99897.91;12188206;19;20051;-82
2022/07/30 04:50:50;;;;;;;15.10;10.23;;;;;;;17.11;100.00;99894.53;12205771;19;20085;-83
2022/07/30 04:55:01;;;;;;;12.82;9.68;;;;;;;17.15;100.00;99905.91;12210495;19;20074;-83
2022/07/30 04:59:04;;;;;;;18.00;10.35;;;;;;;17.19;100.00;99915.34;12182766;19;20009;-83
2022/07/30 05:03:08;;;;;;;16.17;10.15;;;;;;;17.20;100.00;99919.81;12211474;19;20081;-83
2022/07/30 05:07:13;;;;;;;13.75;9.32;;;;;;;17.22;100.00;99921.19;12177598;19;20006;-84
2022/07/30 05:11:15;;;;;;;11.65;9.27;;;;;;;17.29;100.00;99924.44;12227488;19;20014;-82
2022/07/30 05:15:18;;;;;;;16.70;8.77;;;;;;;17.36;100.00;99920.50;12243675;19;20010;-84
2022/07/30 05:19:21;;;;;;;16.52;10.02;;;;;;;17.42;100.00;99924.88;12203523;19;20365;-83
2022/07/30 05:23:23;;;;;;;16.58;10.73;;;;;;;17.48;100.00;99926.50;12217378;19;20007;-84
2022/07/30 05:27:34;;;;;;;13.75;10.27;;;;;;;17.51;100.00;99929.53;12214556;19;20014;-85
2022/07/30 05:31:41;;;;;;;16.00;10.52;;;;;;;17.58;100.00;99929.22;12192517;19;20104;-84
2022/07/30 05:35:44;;;;;;;17.10;10.07;;;;;;;17.64;100.00;99930.81;12212302;19;20039;-84
2022/07/30 05:39:46;;;;;;;19.45;11.68;;;;;;;17.77;100.00;99935.72;12205563;19;20010;-83
2022/07/30 05:44:22;;;;;;;17.00;11.00;;;;;;;17.79;100.00;99937.38;12188649;19;20017;-83
2022/07/30 05:48:26;;;;;;;13.30;9.65;;;;;;;17.88;100.00;99942.03;12204706;19;20055;-81
2022/07/30 05:52:28;;;;;;;12.10;9.00;;;;;;;18.00;100.00;99947.19;12183046;19;20014;-80
2022/07/30 05:56:39;;;;;;;12.15;8.57;;;;;;;18.10;100.00;99947.06;12210137;19;20010;-81
2022/07/30 06:00:48;;;;;;;14.43;8.20;;;;;;;18.18;100.00;99954.78;12206811;19;20070;-81
2022/07/30 06:04:52;;;;;;;10.77;7.28;;;;;;;18.29;100.00;99946.28;12175867;19;20003;-81
2022/07/30 06:08:54;;;;;;;13.05;7.65;;;;;;;18.36;100.00;99943.97;12214625;19;20117;-81
2022/07/30 06:12:56;;;;;;;14.82;8.18;;;;;;;18.45;98.62;99951.38;12206803;19;20497;-81
2022/07/30 06:16:59;;;;;;;10.55;7.53;;;;;;;18.58;96.79;99952.59;12190813;19;20477;-81
2022/07/30 06:21:10;;;;;;;7.55;6.68;;;;;;;18.57;96.63;99950.13;12205076;19;20006;-81
2022/07/30 06:25:30;;;;;;;9.30;6.72;;;;;;;18.70;95.00;99943.78;12187181;19;20427;-82
2022/07/30 06:29:32;;;;;;;12.87;6.67;;;;;;;18.86;92.53;99952.81;12206021;19;20045;-83
2022/07/30 06:33:34;;;;;;;13.02;7.32;;;;;;;18.99;90.69;99957.66;12202772;19;19999;-82
2022/07/30 06:37:36;;;;;;;10.88;6.85;;;;;;;19.17;89.10;99952.34;12181579;19;20055;-82
2022/07/30 06:42:02;;;;;;;10.68;6.13;;;;;;;19.35;87.62;99957.91;12199602;19;20010;-84
2022/07/30 06:46:23;;;;;;;9.18;6.38;;;;;;;19.55;85.36;99956.72;12182596;19;20370;-84
2022/07/30 06:50:26;;;;;;;13.05;7.03;;;;;;;19.77;83.85;99960.84;12179514;19;20022;-84
2022/07/30 06:54:29;;;;;;;12.27;7.25;;;;;;;19.97;82.55;99968.03;12209459;19;20003;-84
2022/07/30 06:58:46;;;;;;;8.52;6.28;;;;;;;20.18;81.70;99969.28;12183466;19;20011;-84
2022/07/30 07:03:12;;;;;;;12.30;6.55;;;;;;;20.41;80.11;99975.84;12210358;19;20035;-84
2022/07/30 07:07:14;;;;;;;8.73;5.60;;;;;;;20.68;79.32;99972.22;12192906;19;20468;-85
2022/07/30 07:11:32;;;;;;;8.85;6.50;;;;;;;20.92;76.14;99974.75;12210298;19;20010;-83
2022/07/30 07:15:39;;;;;;;8.45;5.32;;;;;;;21.22;75.58;99972.38;12204739;19;20496;-85
2022/07/30 07:19:47;;;;;;;7.85;6.28;;;;;;;21.50;73.81;99975.09;12211130;19;20573;-85
2022/07/30 07:24:05;;;;;;;9.90;6.00;;;;;;;21.74;72.12;99977.56;12205757;19;20058;-86
2022/07/30 07:28:26;;;;;;;13.90;7.00;;;;;;;22.01;69.64;99966.19;12182374;19;20335;-84
2022/07/30 07:32:35;;;;;;;9.85;7.18;;;;;;;22.27;67.11;99980.34;12209343;19;20007;-84
2022/07/30 07:37:30;;;;;;;7.65;5.15;;;;;;;22.48;66.31;99979.75;12177108;19;20030;-87
2022/07/30 07:42:12;;;;;;;11.48;5.90;;;;;;;22.64;64.93;99977.34;12202291;19;20107;-87
2022/07/30 07:46:45;;;;;;;12.10;6.70;;;;;;;22.83;62.00;99979.84;12197369;19;20017;-89
2022/07/30 08:24:43;;;;;;;9.82;5.80;;;;;;;24.67;53.22;99973.63;12243635;19;20058;-86
2022/07/30 08:28:45;;;;;;;10.75;6.57;;;;;;;24.84;51.89;99979.16;12198310;19;20011;-86
2022/07/30 08:32:48;;;;;;;14.50;6.38;;;;;;;24.85;51.22;99969.50;12228634;19;20045;-86
2022/07/30 08:36:59;;;;;;;14.20;7.55;;;;;;;25.05;49.54;99967.06;12215831;19;20007;-88
2022/07/30 08:41:05;;;;;;;13.50;7.60;;;;;;;25.13;49.42;99967.00;12200799;19;20014;-86
2022/07/30 08:45:12;;;;;;;12.32;7.70;;;;;;;25.30;48.01;99968.88;12220563;19;20014;-89
2022/07/30 08:49:19;;;;;;;11.15;7.53;;;;;;;25.35;48.47;99970.66;12230463;19;20007;-85
2022/07/30 08:57:48;;;;;;;12.40;7.15;;;;;;;25.37;48.63;99974.78;12228416;19;20248;-87
2022/07/30 09:02:03;;;;;;;9.25;6.25;;;;;;;25.65;48.38;99965.72;12197032;19;20015;-86
2022/07/30 09:06:39;;;;;;;15.50;6.80;;;;;;;25.96;46.15;99970.06;12226877;19;20433;-83
2022/07/30 09:11:07;;;;;;;11.48;7.22;;;;;;;25.51;46.35;99973.66;12201745;19;20034;-87
2022/07/30 09:15:37;;;;;;;11.57;6.80;;;;;;;25.46;46.38;99978.34;12216947;19;20030;-89
2022/07/30 09:20:17;;;;;;;12.20;6.15;;;;;;;25.00;46.12;99976.53;12216698;19;20074;-88
2022/07/30 09:24:27;;;;;;;11.98;5.82;;;;;;;24.96;47.78;99981.22;12218129;19;20941;-86
2022/07/30 09:29:14;;;;;;;10.40;6.15;;;;;;;25.76;44.99;99980.22;12196526;19;20017;-89
2022/07/30 09:33:39;;;;;;;11.75;7.45;;;;;;;26.01;44.13;99981.16;12222128;19;20031;-89
2022/07/30 09:38:18;;;;;;;6.78;4.65;;;;;;;26.81;43.45;99975.81;12199712;19;20034;-89
2022/07/30 09:42:28;;;;;;;10.82;5.63;;;;;;;26.82;43.04;99968.97;12224800;19;20011;-88
2022/07/30 09:46:46;;;;;;;8.65;5.00;;;;;;;26.36;42.42;99975.91;12189233;19;20006;-86
2022/07/30 09:51:14;;;;;;;10.35;5.90;;;;;;;26.22;41.45;99979.06;12217943;19;20089;-87
2022/07/30 09:55:30;;;;;;;11.00;3.95;;;;;;;26.17;41.79;99970.81;12198924;19;20006;-89
2022/07/30 09:59:35;;;;;;;9.32;4.45;;;;;;;25.80;42.33;99984.00;12220662;19;20090;-88
2022/07/30 10:03:42;;;;;;;11.38;5.45;;;;;;;25.63;43.84;99973.72;12215370;19;20007;-89
2022/07/30 10:08:49;;;;;;;9.93;6.22;;;;;;;25.85;43.14;99972.53;12196573;19;20060;-88
2022/07/30 10:12:55;;;;;;;10.18;4.82;;;;;;;26.69;42.04;99970.16;12219153;19;20018;-87
2022/07/30 10:16:58;;;;;;;9.25;4.53;;;;;;;27.38;41.10;99961.78;12195297;19;20015;-88
2022/07/30 10:21:02;;;;;;;9.18;4.40;;;;;;;27.17;40.84;99959.97;12218125;19;20022;-88
2022/07/30 10:25:39;;;;;;;7.53;4.20;;;;;;;26.40;41.13;99959.06;12191622;19;20023;-90
2022/07/30 10:30:21;;;;;;;8.80;4.18;;;;;;;26.92;40.63;99949.84;12219179;19;20030;-88
2022/07/30 10:34:29;;;;;;;5.70;3.63;;;;;;;27.15;37.91;99951.00;12187740;19;20007;-90
2022/07/30 10:38:46;;;;;;;8.40;3.10;;;;;;;27.17;36.84;99953.50;12209189;19;20034;-87
2022/07/30 10:43:30;;;;;;;6.13;3.38;;;;;;;27.81;36.39;99954.53;12213948;19;20077;-87
2022/07/30 10:47:36;;;;;;;4.95;3.10;;;;;;;27.86;36.15;99942.94;12193612;19;20029;-89
2022/07/30 10:51:53;;;;;;;6.47;2.58;;;;;;;28.00;35.25;99942.50;12221119;19;20476;-89
2022/07/30 10:56:22;;;;;;;7.18;2.80;;;;;;;28.24;34.88;99925.34;12189771;19;20417;-90
2022/07/30 11:00:31;;;;;;;7.30;3.13;;;;;;;28.54;34.58;99937.03;12215010;19;20007;-89
2022/07/30 11:04:33;;;;;;;6.15;3.58;;;;;;;29.25;33.99;99932.19;12189542;19;20007;-88
2022/07/30 11:08:46;;;;;;;5.70;2.95;;;;;;;29.52;33.54;99923.81;12219216;19;20405;-91
2022/07/30 11:12:53;;;;;;;4.38;2.80;;;;;;;29.38;33.39;99930.00;12217586;19;20366;-90
2022/07/30 11:22:34;;;;;;;9.20;3.65;;;;;;;29.32;33.53;99936.38;12199496;19;20003;-87
2022/07/30 11:26:40;;;;;;;6.68;3.50;;;;;;;28.63;34.08;99931.97;12220764;19;20014;-89
2022/07/30 11:31:49;;;;;;;6.90;2.78;;;;;;;27.96;34.89;99928.22;12166660;19;20038;-89
2022/07/30 11:36:09;;;;;;;7.80;3.08;;;;;;;27.81;35.05;99932.72;12216943;19;20078;-86
2022/07/30 11:41:02;;;;;;;4.78;2.90;;;;;;;28.03;35.00;99919.94;12215341;19;20010;-90
2022/07/30 11:45:25;;;;;;;5.07;2.90;;;;;;;28.45;33.36;99910.91;12103258;19;2004475;-85
2022/07/30 11:49:51;;;;;;;7.05;3.05;;;;;;;28.55;33.10;99921.66;12181633;19;20010;-85
2022/07/30 11:54:13;;;;;;;12.00;2.58;;;;;;;29.49;32.21;99914.00;12204282;19;20018;-84
2022/07/30 11:58:38;;;;;;;4.10;2.42;;;;;;;30.43;30.45;99896.69;12207735;19;20079;-90
2022/07/30 12:13:24;;;;;;;5.03;2.15;;;;;;;32.75;27.07;99889.94;12179219;19;20028;-88
2022/07/30 12:17:53;;;;;;;4.50;2.38;;;;;;;32.54;25.23;99899.13;12202987;19;20524;-89
2022/07/30 12:22:14;;;;;;;5.85;2.50;;;;;;;32.86;25.66;99909.94;12172228;19;20035;-88
2022/07/30 12:31:20;;;;;;;3.42;1.92;;;;;;;33.80;23.75;99892.00;12186414;19;20460;-88
2022/07/30 12:35:49;;;;;;;3.95;2.50;;;;;;;34.44;23.20;99874.88;12204045;19;20023;-87
2022/07/30 12:40:17;;;;;;;4.60;2.70;;;;;;;34.63;22.79;99887.16;12201550;19;20051;-88
2022/07/30 12:44:49;;;;;;;4.13;3.03;;;;;;;34.83;22.66;99876.03;12180432;19;20042;-88
2022/07/30 12:49:11;;;;;;;2.88;2.58;;;;;;;35.64;21.75;99874.09;12202188;19;20022;-89
2022/07/30 12:53:29;;;;;;;2.95;2.30;;;;;;;36.35;21.33;99860.44;12199675;19;20039;-81
2022/07/30 12:57:54;;;;;;;3.63;2.28;;;;;;;36.77;20.46;99864.13;12207601;19;20010;-82
2022/07/30 13:01:56;;;;;;;4.18;2.58;;;;;;;36.53;20.53;99864.00;12197481;19;20010;-81
2022/07/30 13:05:59;;;;;;;4.63;2.60;;;;;;;36.45;19.83;99868.94;12209752;19;20022;-81
2022/07/30 13:10:09;;;;;;;3.20;2.20;;;;;;;36.59;19.84;99867.19;12211583;19;20039;-81
2022/07/30 13:14:12;;;;;;;3.70;2.35;;;;;;;36.45;19.53;99873.88;12188954;19;20692;-81
2022/07/30 13:18:14;;;;;;;4.28;2.25;;;;;;;37.02;19.73;99846.66;12225406;19;20015;-82
2022/07/30 13:22:16;;;;;;;3.05;1.90;;;;;;;36.95;19.55;99844.66;12201193;19;20006;-82
2022/07/30 13:26:18;;;;;;;2.75;1.95;;;;;;;37.44;18.52;99855.94;12217099;19;20011;-82
2022/07/30 13:30:20;;;;;;;2.90;2.10;;;;;;;36.72;18.84;99857.63;12221198;19;20025;-81
2022/07/30 13:34:22;;;;;;;4.93;2.20;;;;;;;36.85;18.68;99857.06;12193078;19;20082;-80
2022/07/30 13:38:24;;;;;;;3.28;2.40;;;;;;;37.56;18.31;99867.66;12213534;19;20010;-82
2022/07/30 13:42:25;;;;;;;2.40;2.20;;;;;;;38.07;17.95;99851.28;12219308;19;20007;-83
2022/07/30 13:46:27;;;;;;;3.05;2.38;;;;;;;38.20;17.69;99847.81;12193921;19;20019;-81
2022/07/30 13:50:29;;;;;;;3.47;2.33;;;;;;;36.45;18.53;99853.78;12215703;19;20046;-80
2022/07/30 13:54:30;;;;;;;4.13;2.05;;;;;;;36.80;19.03;99840.28;12214571;19;20006;-81
2022/07/30 13:58:32;;;;;;;3.70;2.10;;;;;;;37.30;18.29;99845.44;12185376;19;20082;-81
2022/07/30 14:02:36;;;;;;;4.03;2.10;;;;;;;37.50;18.33;99836.97;12216032;19;20015;-81
2022/07/30 14:06:38;;;;;;;3.78;1.90;;;;;;;37.94;18.05;99830.16;12213249;19;20029;-81
2022/07/30 14:10:40;;;;;;;3.92;2.65;;;;;;;36.99;18.65;99822.44;12201291;19;20006;-82
2022/07/30 14:14:42;;;;;;;6.32;2.40;;;;;;;37.26;18.85;99831.13;12225006;19;20459;-82
2022/07/30 14:18:44;;;;;;;4.00;2.45;;;;;;;37.43;18.69;99834.19;12221751;19;20551;-84
2022/07/30 14:22:46;;;;;;;4.93;2.30;;;;;;;37.51;17.67;99832.84;12196489;19;20453;-80
2022/07/30 14:26:49;;;;;;;5.05;2.20;;;;;;;38.00;17.12;99834.16;12207474;19;20002;-82
2022/07/30 14:30:58;;;;;;;4.68;2.60;;;;;;;38.78;17.05;99818.75;12206815;19;20014;-84
2022/07/30 14:35:00;;;;;;;4.05;1.83;;;;;;;39.54;16.63;99825.34;12194106;19;20014;-82
2022/07/30 14:39:03;;;;;;;3.08;2.00;;;;;;;38.13;17.21;99828.56;12203731;19;19999;-79
2022/07/30 14:43:05;;;;;;;4.53;2.55;;;;;;;37.39;17.50;99817.81;12216957;19;20017;-83
2022/07/30 14:47:07;;;;;;;4.82;2.70;;;;;;;37.34;17.39;99834.72;12191155;19;20092;-80
2022/07/30 14:51:09;;;;;;;2.67;2.15;;;;;;;37.93;16.95;99816.16;12215069;19;20563;-83
2022/07/30 14:55:22;;;;;;;5.40;2.10;;;;;;;37.62;17.17;99819.13;12178097;19;20082;-80
2022/07/30 14:59:26;;;;;;;3.58;2.30;;;;;;;36.00;18.36;99822.22;12208397;19;20011;-83
2022/07/30 15:03:28;;;;;;;5.97;2.25;;;;;;;34.83;19.42;99833.09;12200167;19;20026;-79
2022/07/30 15:07:29;;;;;;;2.90;2.05;;;;;;;34.01;19.68;99823.41;12176763;19;20027;-78
2022/07/30 15:11:53;;;;;;;3.35;2.10;;;;;;;33.67;19.61;99825.03;12212718;19;20079;-79
2022/07/30 15:16:12;;;;;;;4.07;2.15;;;;;;;32.82;20.79;99827.19;12190504;19;20023;-79
2022/07/30 15:20:13;;;;;;;3.83;2.22;;;;;;;32.66;21.12;99836.09;12210054;19;20015;-79
2022/07/30 15:24:15;;;;;;;;;;;;;;;32.09;21.49;99823.44;12211950;19;20505;-81
2022/07/30 15:28:18;;;;;;;3.75;1.83;;;;;;;31.67;21.82;99825.50;12154871;19;19910;-77
2022/07/30 15:32:19;;;;;;;3.65;1.85;;;;;;;31.23;22.39;99826.22;12216509;19;20006;-82
2022/07/30 15:36:21;;;;;;;7.97;2.17;;;;;;;30.72;23.35;99832.47;12216720;19;20018;-81
2022/07/30 15:40:23;;;;;;;6.13;2.08;;;;;;;30.24;23.60;99825.69;12179509;19;20014;-83
2022/07/30 15:44:25;;;;;;;;;;;;;;;30.08;23.67;99820.97;12220719;19;20011;-78
2022/07/30 15:48:26;;;;;;;3.47;1.65;;;;;;;30.33;24.26;99820.56;12213691;19;19927;-82
2022/07/30 15:52:28;;;;;;;5.75;1.70;;;;;;;31.19;23.13;99828.22;12187251;19;20022;-81
2022/07/30 15:56:32;;;;;;;3.00;1.73;;;;;;;31.50;22.65;99828.97;12212399;19;20011;-80
2022/07/30 16:00:33;;;;;;;4.55;1.90;;;;;;;31.49;22.44;99831.00;12219085;19;20006;-80
2022/07/30 16:04:37;;;;;;;3.92;1.70;;;;;;;31.17;22.81;99829.81;12192246;19;20049;-80
2022/07/30 16:08:41;;;;;;;3.95;2.00;;;;;;;30.74;23.42;99827.22;12207520;19;20065;-81
2022/07/30 16:12:43;;;;;;;4.03;2.20;;;;;;;30.54;23.49;99817.19;12219738;19;20010;-80
2022/07/30 16:16:45;;;;;;;3.47;1.70;;;;;;;30.33;23.11;99831.94;12186442;19;20011;-82
2022/07/30 16:20:53;;;;;;;;;;;;;;;30.10;23.65;99829.09;12211770;19;20052;-82
2022/07/30 16:24:55;;;;;;;3.88;1.77;;;;;;;30.01;24.10;99820.03;12206707;19;19918;-81
2022/07/30 16:28:56;;;;;;;6.55;2.05;;;;;;;30.02;23.41;99825.34;12198839;19;20017;-79
2022/07/30 16:32:58;;;;;;;2.35;1.80;;;;;;;29.68;23.64;99824.34;12221761;19;20007;-79
2022/07/30 16:37:00;;;;;;;2.55;1.58;;;;;;;29.33;24.58;99813.97;12221306;19;20022;-83
2022/07/30 16:41:06;;;;;;;3.97;1.77;;;;;;;29.26;24.72;99820.31;12201004;19;20058;-80
2022/07/30 16:45:13;;;;;;;3.00;1.50;;;;;;;29.26;24.69;99825.97;12222298;19;20456;-81
2022/07/30 16:49:15;;;;;;;3.90;1.38;;;;;;;29.23;24.12;99815.38;12199298;19;20015;-78
2022/07/30 16:53:17;;;;;;;4.00;1.80;;;;;;;29.17;24.17;99819.72;12222025;19;20736;-81
2022/07/30 16:57:22;;;;;;;3.78;1.77;;;;;;;29.05;23.99;99815.03;12219514;19;20445;-81
2022/07/30 17:01:24;;;;;;;5.78;1.25;;;;;;;28.90;23.17;99817.91;12201664;19;20732;-82
2022/07/30 17:05:26;;;;;;;1.63;1.13;;;;;;;28.71;23.72;99811.06;12222134;19;20039;-80
2022/07/30 17:09:30;;;;;;;4.07;1.15;;;;;;;28.65;23.17;99804.03;12219173;19;20030;-79
2022/07/30 17:13:39;;;;;;;2.50;1.10;;;;;;;28.61;23.69;99806.78;12200581;19;20014;-81
2022/07/30 17:17:41;;;;;;;2.28;1.20;;;;;;;28.71;23.23;99818.75;12226499;19;20014;-82
2022/07/30 17:21:43;;;;;;;2.60;1.20;;;;;;;28.62;23.04;99813.28;12224296;19;20011;-82
2022/07/30 17:25:47;;;;;;;4.20;1.40;;;;;;;28.58;23.24;99818.88;12203394;19;20018;-82
2022/07/30 17:29:49;;;;;;;2.20;1.25;;;;;;;28.54;23.54;99826.47;12219713;19;20545;-81
2022/07/30 17:33:51;;;;;;;1.50;1.00;;;;;;;28.75;22.77;99828.97;12225325;19;20007;-81
2022/07/30 17:37:53;;;;;;;1.88;1.27;;;;;;;28.57;22.64;99822.91;12190990;19;20006;-82
2022/07/30 17:41:56;;;;;;;3.47;1.30;;;;;;;28.34;23.04;99830.44;12218318;19;20010;-84
2022/07/30 17:46:15;;;;;;;3.40;1.52;;;;;;;28.24;22.90;99848.00;12227704;19;20010;-85
2022/07/30 17:50:52;;;;;;;2.95;1.45;;;;;;;28.10;23.44;99837.97;12206514;19;20006;-84
2022/07/30 17:54:58;;;;;;;3.25;1.40;;;;;;;28.04;23.90;99849.94;12256376;19;20007;-83
2022/07/30 17:59:00;;;;;;;5.35;2.05;;;;;;;27.93;23.88;99842.03;12207734;19;20010;-85
2022/07/30 18:03:05;;;;;;;2.08;1.27;;;;;;;27.76;24.89;99844.38;12231185;19;20003;-84
2022/07/30 18:07:11;;;;;;;6.00;1.63;;;;;;;27.52;25.83;99856.69;12200649;19;20018;-83
2022/07/30 18:11:30;;;;;;;5.57;1.70;;;;;;;27.30;26.62;99858.06;12229682;19;20051;-82
2022/07/30 18:16:05;;;;;;;4.82;1.60;;;;;;;27.06;26.59;99854.13;12228643;19;20014;-83
2022/07/30 18:24:54;;;;;;;4.32;2.33;;;;;;;26.58;28.41;99865.25;12229322;19;20027;-83
2022/07/30 18:29:02;;;;;;;5.13;2.17;;;;;;;26.44;28.29;99869.59;12198459;19;20006;-84
2022/07/30 18:33:28;;;;;;;4.80;2.22;;;;;;;26.26;28.42;99875.47;12219666;19;20038;-83
2022/07/30 18:37:41;;;;;;;4.25;2.17;;;;;;;26.12;28.94;99875.88;12197680;19;20054;-83
2022/07/30 18:41:44;;;;;;;4.35;1.88;;;;;;;26.03;28.98;99877.16;12223860;19;20018;-80
2022/07/30 18:45:47;;;;;;;5.20;2.40;;;;;;;25.91;28.99;99883.63;12211644;19;20107;-82
2022/07/30 18:49:49;;;;;;;3.70;1.90;;;;;;;25.79;29.20;99886.38;12192034;19;20019;-81
2022/07/30 18:53:52;;;;;;;3.40;2.10;;;;;;;25.61;29.64;99883.78;12209459;19;20006;-82
2022/07/30 18:57:53;;;;;;;3.40;1.83;;;;;;;25.47;29.83;99897.38;12215665;19;20082;-83
2022/07/30 19:01:55;;;;;;;4.00;2.10;;;;;;;25.33;30.06;99894.84;12195792;19;20098;-83
2022/07/30 19:05:56;;;;;;;3.67;2.03;;;;;;;25.15;30.49;99904.63;12215860;19;20018;-82
2022/07/30 19:09:59;;;;;;;4.25;1.92;;;;;;;24.96;30.44;99905.94;12213931;19;20429;-82
2022/07/30 19:14:00;;;;;;;3.33;1.80;;;;;;;24.84;30.78;99910.66;12198344;19;20026;-81
2022/07/30 19:18:02;;;;;;;3.45;1.67;;;;;;;24.69;30.98;99912.94;12227165;19;20019;-82
2022/07/30 19:22:04;;;;;;;3.47;1.83;;;;;;;24.54;31.34;99922.81;12210213;19;20026;-83
2022/07/30 19:26:07;;;;;;;4.50;2.03;;;;;;;24.34;31.78;99930.00;12186853;19;20799;-83
2022/07/30 19:30:09;;;;;;;3.33;1.80;;;;;;;24.15;31.95;99928.78;12207833;19;20504;-82
2022/07/30 19:34:10;;;;;;;4.38;1.73;;;;;;;23.96;32.43;99932.81;12192791;19;20027;-83
2022/07/30 19:38:12;;;;;;;3.40;2.00;;;;;;;23.75;32.65;99937.53;12213186;19;20014;-81
2022/07/30 19:42:22;;;;;;;9.55;2.28;;;;;;;23.59;33.19;99938.03;12205089;19;20023;-81
2022/07/30 19:46:26;;;;;;;6.85;1.95;;;;;;;23.48;33.72;99949.97;12179634;19;20035;-81
2022/07/30 19:50:29;;;;;;;4.97;2.22;;;;;;;23.31;34.35;99953.63;12198381;19;20010;-81
2022/07/30 19:54:32;;;;;;;3.00;1.77;;;;;;;23.14;34.63;99962.88;12197046;19;20499;-82
2022/07/30 19:58:37;;;;;;;3.22;2.03;;;;;;;23.00;35.04;99977.09;12173842;19;20011;-81
2022/07/30 20:02:40;;;;;;;4.85;1.88;;;;;;;22.87;35.60;99980.84;12203621;19;20002;-82
2022/07/30 20:06:43;;;;;;;3.78;1.98;;;;;;;22.72;35.79;99980.16;12204874;19;20139;-80
2022/07/30 20:10:47;;;;;;;5.40;2.75;;;;;;;22.61;35.95;99975.19;12171669;19;20002;-81
2022/07/30 20:14:49;;;;;;;6.70;2.47;;;;;;;22.53;36.93;99985.22;12198527;19;20082;-80